sensor_id;sensor_type;location;lat;lon;timestamp;P1;durP1;ratioP1;P2;durP2;ratioP2
5845;SDS011;2949;50.778;7.094;2023-02-28T00:00:48;5.30;;;2.80;;
5845;SDS011;2949;50.778;7.094;2023-02-28T00:03:13;6.63;;;2.87;;
5845;SDS011;2949;50.778;7.094;2023-02-28T00:05:39;6.00;;;2.80;;
5845;SDS011;2949;50.778;7.094;2023-02-28T00:08:05;7.27;;;2.93;;
5845;SDS011;2949;50.778;7.094;2023-02-28T00:10:30;4.00;;;2.70;;
5845;SDS011;2949;50.778;7.094;2023-02-28T00:12:59;5.43;;;2.67;;
5845;SDS011;2949;50.778;7.094;2023-02-28T00:15:27;4.47;;;3.37;;
5845;SDS011;2949;50.778;7.094;2023-02-28T00:17:53;4.83;;;2.40;;
5845;SDS011;2949;50.778;7.094;2023-02-28T00:20:18;6.17;;;2.67;;
5845;SDS011;2949;50.778;7.094;2023-02-28T00:22:45;7.00;;;2.80;;
5845;SDS011;2949;50.778;7.094;2023-02-28T00:25:14;3.73;;;2.63;;
5845;SDS011;2949;50.778;7.094;2023-02-28T00:27:41;4.37;;;2.90;;
5845;SDS011;2949;50.778;7.094;2023-02-28T00:30:09;14.50;;;3.03;;
5845;SDS011;2949;50.778;7.094;2023-02-28T00:32:36;4.53;;;2.30;;
5845;SDS011;2949;50.778;7.094;2023-02-28T00:35:02;8.60;;;3.17;;
5845;SDS011;2949;50.778;7.094;2023-02-28T00:37:28;4.67;;;2.37;;
5845;SDS011;2949;50.778;7.094;2023-02-28T00:39:53;7.40;;;3.03;;
5845;SDS011;2949;50.778;7.094;2023-02-28T00:42:19;2.87;;;2.27;;
5845;SDS011;2949;50.778;7.094;2023-02-28T00:44:44;4.50;;;2.37;;
5845;SDS011;2949;50.778;7.094;2023-02-28T00:47:10;6.10;;;2.97;;
5845;SDS011;2949;50.778;7.094;2023-02-28T00:49:35;5.60;;;2.80;;
5845;SDS011;2949;50.778;7.094;2023-02-28T00:52:01;5.37;;;2.60;;
5845;SDS011;2949;50.778;7.094;2023-02-28T00:54:27;4.40;;;2.13;;
5845;SDS011;2949;50.778;7.094;2023-02-28T00:56:52;4.13;;;2.57;;
5845;SDS011;2949;50.778;7.094;2023-02-28T00:59:18;4.67;;;2.53;;
5845;SDS011;2949;50.778;7.094;2023-02-28T01:01:44;2.97;;;2.20;;
5845;SDS011;2949;50.778;7.094;2023-02-28T01:04:11;6.40;;;2.40;;
5845;SDS011;2949;50.778;7.094;2023-02-28T01:06:37;4.60;;;2.63;;
5845;SDS011;2949;50.778;7.094;2023-02-28T01:09:03;10.17;;;3.20;;
5845;SDS011;2949;50.778;7.094;2023-02-28T01:11:29;7.17;;;3.33;;
5845;SDS011;2949;50.778;7.094;2023-02-28T01:13:55;6.07;;;2.77;;
5845;SDS011;2949;50.778;7.094;2023-02-28T01:16:22;8.23;;;2.80;;
5845;SDS011;2949;50.778;7.094;2023-02-28T01:18:47;7.17;;;2.83;;
5845;SDS011;2949;50.778;7.094;2023-02-28T01:21:14;5.23;;;2.80;;
5845;SDS011;2949;50.778;7.094;2023-02-28T01:23:41;3.47;;;2.70;;
5845;SDS011;2949;50.778;7.094;2023-02-28T01:26:09;6.77;;;3.37;;
5845;SDS011;2949;50.778;7.094;2023-02-28T01:28:39;3.07;;;2.23;;
5845;SDS011;2949;50.778;7.094;2023-02-28T01:31:05;7.40;;;2.67;;
5845;SDS011;2949;50.778;7.094;2023-02-28T01:33:31;11.80;;;3.30;;
5845;SDS011;2949;50.778;7.094;2023-02-28T01:36:08;7.03;;;3.40;;
5845;SDS011;2949;50.778;7.094;2023-02-28T01:38:34;12.33;;;4.30;;
5845;SDS011;2949;50.778;7.094;2023-02-28T01:41:00;7.13;;;3.63;;
5845;SDS011;2949;50.778;7.094;2023-02-28T01:43:30;5.80;;;3.10;;
5845;SDS011;2949;50.778;7.094;2023-02-28T01:45:58;4.03;;;2.80;;
5845;SDS011;2949;50.778;7.094;2023-02-28T01:48:31;5.33;;;2.60;;
5845;SDS011;2949;50.778;7.094;2023-02-28T01:50:59;6.70;;;3.20;;
5845;SDS011;2949;50.778;7.094;2023-02-28T01:53:32;4.50;;;2.50;;
5845;SDS011;2949;50.778;7.094;2023-02-28T01:56:01;4.17;;;2.17;;
5845;SDS011;2949;50.778;7.094;2023-02-28T01:58:31;4.47;;;3.00;;
5845;SDS011;2949;50.778;7.094;2023-02-28T02:00:56;4.70;;;2.60;;
5845;SDS011;2949;50.778;7.094;2023-02-28T02:03:22;3.43;;;3.10;;
5845;SDS011;2949;50.778;7.094;2023-02-28T02:05:48;2.80;;;2.37;;
5845;SDS011;2949;50.778;7.094;2023-02-28T02:08:18;3.70;;;2.47;;
5845;SDS011;2949;50.778;7.094;2023-02-28T02:10:46;3.87;;;2.40;;
5845;SDS011;2949;50.778;7.094;2023-02-28T02:22:07;4.43;;;2.77;;
5845;SDS011;2949;50.778;7.094;2023-02-28T02:33:04;4.60;;;2.67;;
5845;SDS011;2949;50.778;7.094;2023-02-28T02:35:42;2.67;;;2.43;;
5845;SDS011;2949;50.778;7.094;2023-02-28T02:46:26;4.87;;;3.10;;
5845;SDS011;2949;50.778;7.094;2023-02-28T02:48:55;4.23;;;2.40;;
5845;SDS011;2949;50.778;7.094;2023-02-28T02:51:22;3.33;;;3.03;;
5845;SDS011;2949;50.778;7.094;2023-02-28T02:53:50;7.07;;;2.90;;
5845;SDS011;2949;50.778;7.094;2023-02-28T02:56:29;5.87;;;3.10;;
5845;SDS011;2949;50.778;7.094;2023-02-28T02:58:58;6.77;;;3.07;;
5845;SDS011;2949;50.778;7.094;2023-02-28T03:01:26;8.20;;;3.07;;
5845;SDS011;2949;50.778;7.094;2023-02-28T03:03:56;8.73;;;3.20;;
5845;SDS011;2949;50.778;7.094;2023-02-28T03:06:23;8.27;;;2.87;;
5845;SDS011;2949;50.778;7.094;2023-02-28T03:08:49;4.47;;;2.77;;
5845;SDS011;2949;50.778;7.094;2023-02-28T03:11:15;3.87;;;3.47;;
5845;SDS011;2949;50.778;7.094;2023-02-28T03:16:32;7.53;;;3.37;;
5845;SDS011;2949;50.778;7.094;2023-02-28T03:19:03;4.70;;;3.53;;
5845;SDS011;2949;50.778;7.094;2023-02-28T03:21:56;5.50;;;2.90;;
5845;SDS011;2949;50.778;7.094;2023-02-28T03:27:17;8.40;;;3.33;;
5845;SDS011;2949;50.778;7.094;2023-02-28T03:29:57;4.30;;;2.50;;
5845;SDS011;2949;50.778;7.094;2023-02-28T03:35:22;4.50;;;2.77;;
5845;SDS011;2949;50.778;7.094;2023-02-28T03:37:52;8.83;;;2.83;;
5845;SDS011;2949;50.778;7.094;2023-02-28T03:40:25;3.77;;;2.87;;
5845;SDS011;2949;50.778;7.094;2023-02-28T03:42:56;9.67;;;3.43;;
5845;SDS011;2949;50.778;7.094;2023-02-28T03:45:28;4.47;;;2.80;;
5845;SDS011;2949;50.778;7.094;2023-02-28T03:47:58;3.70;;;2.80;;
5845;SDS011;2949;50.778;7.094;2023-02-28T03:50:41;5.40;;;2.93;;
5845;SDS011;2949;50.778;7.094;2023-02-28T03:53:22;2.47;;;2.27;;
5845;SDS011;2949;50.778;7.094;2023-02-28T03:56:15;4.37;;;3.20;;
5845;SDS011;2949;50.778;7.094;2023-02-28T03:58:53;5.93;;;4.07;;
5845;SDS011;2949;50.778;7.094;2023-02-28T04:04:08;7.17;;;3.20;;
5845;SDS011;2949;50.778;7.094;2023-02-28T04:06:34;8.70;;;3.50;;
5845;SDS011;2949;50.778;7.094;2023-02-28T04:09:01;5.03;;;3.07;;
5845;SDS011;2949;50.778;7.094;2023-02-28T04:11:31;3.43;;;3.00;;
5845;SDS011;2949;50.778;7.094;2023-02-28T04:14:05;3.43;;;2.43;;
5845;SDS011;2949;50.778;7.094;2023-02-28T04:16:32;6.60;;;3.30;;
5845;SDS011;2949;50.778;7.094;2023-02-28T04:18:59;8.57;;;3.07;;
5845;SDS011;2949;50.778;7.094;2023-02-28T04:21:30;6.33;;;3.60;;
5845;SDS011;2949;50.778;7.094;2023-02-28T04:23:57;3.33;;;2.40;;
5845;SDS011;2949;50.778;7.094;2023-02-28T04:26:25;5.93;;;3.30;;
5845;SDS011;2949;50.778;7.094;2023-02-28T04:28:53;6.90;;;3.47;;
5845;SDS011;2949;50.778;7.094;2023-02-28T04:31:19;4.10;;;3.27;;
5845;SDS011;2949;50.778;7.094;2023-02-28T04:33:44;8.63;;;3.77;;
5845;SDS011;2949;50.778;7.094;2023-02-28T04:36:10;2.70;;;2.50;;
5845;SDS011;2949;50.778;7.094;2023-02-28T04:38:36;6.60;;;3.33;;
5845;SDS011;2949;50.778;7.094;2023-02-28T04:41:03;9.50;;;3.60;;
5845;SDS011;2949;50.778;7.094;2023-02-28T04:43:30;5.37;;;3.20;;
5845;SDS011;2949;50.778;7.094;2023-02-28T04:45:57;5.30;;;2.90;;
5845;SDS011;2949;50.778;7.094;2023-02-28T04:48:27;4.57;;;2.87;;
5845;SDS011;2949;50.778;7.094;2023-02-28T04:50:53;3.23;;;2.97;;
5845;SDS011;2949;50.778;7.094;2023-02-28T04:53:18;6.87;;;2.50;;
5845;SDS011;2949;50.778;7.094;2023-02-28T04:55:44;4.67;;;2.77;;
5845;SDS011;2949;50.778;7.094;2023-02-28T04:58:10;8.97;;;3.20;;
5845;SDS011;2949;50.778;7.094;2023-02-28T05:00:36;4.90;;;2.97;;
5845;SDS011;2949;50.778;7.094;2023-02-28T05:03:02;5.07;;;2.80;;
5845;SDS011;2949;50.778;7.094;2023-02-28T05:05:28;5.20;;;3.17;;
5845;SDS011;2949;50.778;7.094;2023-02-28T05:07:53;3.10;;;2.80;;
5845;SDS011;2949;50.778;7.094;2023-02-28T05:10:20;4.17;;;2.70;;
5845;SDS011;2949;50.778;7.094;2023-02-28T05:12:46;3.60;;;2.30;;
5845;SDS011;2949;50.778;7.094;2023-02-28T05:15:13;2.83;;;2.30;;
5845;SDS011;2949;50.778;7.094;2023-02-28T05:17:39;5.90;;;2.17;;
5845;SDS011;2949;50.778;7.094;2023-02-28T05:20:05;3.40;;;2.70;;
5845;SDS011;2949;50.778;7.094;2023-02-28T05:22:31;3.10;;;2.90;;
5845;SDS011;2949;50.778;7.094;2023-02-28T05:24:57;4.73;;;2.40;;
5845;SDS011;2949;50.778;7.094;2023-02-28T05:27:23;6.73;;;2.93;;
5845;SDS011;2949;50.778;7.094;2023-02-28T05:29:48;3.23;;;2.20;;
5845;SDS011;2949;50.778;7.094;2023-02-28T05:32:14;3.07;;;2.17;;
5845;SDS011;2949;50.778;7.094;2023-02-28T05:34:40;2.60;;;2.13;;
5845;SDS011;2949;50.778;7.094;2023-02-28T05:37:08;5.30;;;2.30;;
5845;SDS011;2949;50.778;7.094;2023-02-28T05:39:38;5.63;;;2.30;;
5845;SDS011;2949;50.778;7.094;2023-02-28T05:42:03;5.27;;;2.90;;
5845;SDS011;2949;50.778;7.094;2023-02-28T05:44:29;8.20;;;3.00;;
5845;SDS011;2949;50.778;7.094;2023-02-28T05:46:55;3.50;;;2.67;;
5845;SDS011;2949;50.778;7.094;2023-02-28T05:49:21;4.00;;;2.50;;
5845;SDS011;2949;50.778;7.094;2023-02-28T05:51:46;3.63;;;2.67;;
5845;SDS011;2949;50.778;7.094;2023-02-28T05:54:12;6.07;;;2.20;;
5845;SDS011;2949;50.778;7.094;2023-02-28T05:56:37;1.80;;;1.50;;
5845;SDS011;2949;50.778;7.094;2023-02-28T05:59:04;2.13;;;2.03;;
5845;SDS011;2949;50.778;7.094;2023-02-28T06:01:40;3.57;;;1.90;;
5845;SDS011;2949;50.778;7.094;2023-02-28T06:04:10;3.03;;;2.57;;
5845;SDS011;2949;50.778;7.094;2023-02-28T06:06:35;3.93;;;2.60;;
5845;SDS011;2949;50.778;7.094;2023-02-28T06:09:02;2.90;;;2.03;;
5845;SDS011;2949;50.778;7.094;2023-02-28T06:11:30;5.60;;;2.53;;
5845;SDS011;2949;50.778;7.094;2023-02-28T06:13:57;4.43;;;2.13;;
5845;SDS011;2949;50.778;7.094;2023-02-28T06:16:24;2.40;;;2.20;;
5845;SDS011;2949;50.778;7.094;2023-02-28T06:18:51;2.73;;;2.50;;
5845;SDS011;2949;50.778;7.094;2023-02-28T06:21:17;8.57;;;3.10;;
5845;SDS011;2949;50.778;7.094;2023-02-28T06:23:43;2.00;;;1.90;;
5845;SDS011;2949;50.778;7.094;2023-02-28T06:26:09;2.87;;;2.30;;
5845;SDS011;2949;50.778;7.094;2023-02-28T06:28:35;3.60;;;2.27;;
5845;SDS011;2949;50.778;7.094;2023-02-28T06:31:05;9.07;;;2.50;;
5845;SDS011;2949;50.778;7.094;2023-02-28T06:33:32;3.60;;;2.67;;
5845;SDS011;2949;50.778;7.094;2023-02-28T06:35:58;2.60;;;2.40;;
5845;SDS011;2949;50.778;7.094;2023-02-28T06:38:23;6.30;;;2.97;;
5845;SDS011;2949;50.778;7.094;2023-02-28T06:40:53;7.63;;;3.10;;
5845;SDS011;2949;50.778;7.094;2023-02-28T06:43:19;3.27;;;2.30;;
5845;SDS011;2949;50.778;7.094;2023-02-28T06:45:45;6.53;;;3.67;;
5845;SDS011;2949;50.778;7.094;2023-02-28T06:48:11;6.60;;;4.10;;
5845;SDS011;2949;50.778;7.094;2023-02-28T06:50:36;7.70;;;4.07;;
5845;SDS011;2949;50.778;7.094;2023-02-28T06:53:02;6.97;;;4.33;;
5845;SDS011;2949;50.778;7.094;2023-02-28T06:55:27;7.70;;;4.43;;
5845;SDS011;2949;50.778;7.094;2023-02-28T06:57:53;8.63;;;4.13;;
5845;SDS011;2949;50.778;7.094;2023-02-28T07:00:19;4.90;;;4.13;;
5845;SDS011;2949;50.778;7.094;2023-02-28T07:02:45;5.20;;;4.20;;
5845;SDS011;2949;50.778;7.094;2023-02-28T07:05:12;4.70;;;3.80;;
5845;SDS011;2949;50.778;7.094;2023-02-28T07:07:38;6.03;;;3.67;;
5845;SDS011;2949;50.778;7.094;2023-02-28T07:10:08;7.53;;;3.50;;
5845;SDS011;2949;50.778;7.094;2023-02-28T07:12:36;4.13;;;3.20;;
5845;SDS011;2949;50.778;7.094;2023-02-28T07:15:02;3.33;;;2.53;;
5845;SDS011;2949;50.778;7.094;2023-02-28T07:17:28;4.27;;;2.27;;
5845;SDS011;2949;50.778;7.094;2023-02-28T07:19:54;6.43;;;2.80;;
5845;SDS011;2949;50.778;7.094;2023-02-28T07:22:19;3.53;;;2.80;;
5845;SDS011;2949;50.778;7.094;2023-02-28T07:24:45;4.47;;;2.40;;
5845;SDS011;2949;50.778;7.094;2023-02-28T07:27:10;2.33;;;2.10;;
5845;SDS011;2949;50.778;7.094;2023-02-28T07:29:36;3.60;;;2.03;;
5845;SDS011;2949;50.778;7.094;2023-02-28T07:32:03;2.20;;;2.00;;
5845;SDS011;2949;50.778;7.094;2023-02-28T07:34:28;2.07;;;1.87;;
5845;SDS011;2949;50.778;7.094;2023-02-28T07:36:54;3.50;;;1.90;;
5845;SDS011;2949;50.778;7.094;2023-02-28T07:39:20;1.60;;;1.50;;
5845;SDS011;2949;50.778;7.094;2023-02-28T07:41:47;2.33;;;1.63;;
5845;SDS011;2949;50.778;7.094;2023-02-28T07:44:12;1.93;;;1.73;;
5845;SDS011;2949;50.778;7.094;2023-02-28T07:46:38;2.40;;;1.60;;
5845;SDS011;2949;50.778;7.094;2023-02-28T07:49:04;3.87;;;1.90;;
5845;SDS011;2949;50.778;7.094;2023-02-28T07:51:30;1.53;;;1.40;;
5845;SDS011;2949;50.778;7.094;2023-02-28T07:53:56;2.13;;;1.90;;
5845;SDS011;2949;50.778;7.094;2023-02-28T07:56:22;1.80;;;1.43;;
5845;SDS011;2949;50.778;7.094;2023-02-28T07:58:48;1.20;;;1.17;;
5845;SDS011;2949;50.778;7.094;2023-02-28T08:01:13;4.60;;;1.70;;
5845;SDS011;2949;50.778;7.094;2023-02-28T08:03:39;4.07;;;1.77;;
5845;SDS011;2949;50.778;7.094;2023-02-28T08:06:06;8.00;;;2.03;;
5845;SDS011;2949;50.778;7.094;2023-02-28T08:08:33;2.17;;;1.97;;
5845;SDS011;2949;50.778;7.094;2023-02-28T08:10:59;3.90;;;2.03;;
5845;SDS011;2949;50.778;7.094;2023-02-28T08:13:27;2.30;;;1.90;;
5845;SDS011;2949;50.778;7.094;2023-02-28T08:15:53;4.20;;;2.07;;
5845;SDS011;2949;50.778;7.094;2023-02-28T08:18:19;2.23;;;1.63;;
5845;SDS011;2949;50.778;7.094;2023-02-28T08:20:45;1.93;;;1.63;;
5845;SDS011;2949;50.778;7.094;2023-02-28T08:23:10;2.40;;;1.40;;
5845;SDS011;2949;50.778;7.094;2023-02-28T08:25:36;5.60;;;1.93;;
5845;SDS011;2949;50.778;7.094;2023-02-28T08:28:01;3.10;;;1.60;;
5845;SDS011;2949;50.778;7.094;2023-02-28T08:30:27;1.93;;;1.63;;
5845;SDS011;2949;50.778;7.094;2023-02-28T08:32:53;2.33;;;1.67;;
5845;SDS011;2949;50.778;7.094;2023-02-28T08:35:19;4.30;;;1.20;;
5845;SDS011;2949;50.778;7.094;2023-02-28T08:37:44;2.93;;;1.83;;
5845;SDS011;2949;50.778;7.094;2023-02-28T08:40:12;0.90;;;0.90;;
5845;SDS011;2949;50.778;7.094;2023-02-28T08:42:42;1.50;;;1.40;;
5845;SDS011;2949;50.778;7.094;2023-02-28T08:45:11;3.43;;;1.03;;
5845;SDS011;2949;50.778;7.094;2023-02-28T08:47:38;3.90;;;1.27;;
5845;SDS011;2949;50.778;7.094;2023-02-28T08:50:03;4.40;;;1.10;;
5845;SDS011;2949;50.778;7.094;2023-02-28T08:52:30;0.90;;;0.90;;
5845;SDS011;2949;50.778;7.094;2023-02-28T08:54:55;1.30;;;1.20;;
5845;SDS011;2949;50.778;7.094;2023-02-28T08:57:21;3.67;;;1.63;;
5845;SDS011;2949;50.778;7.094;2023-02-28T08:59:46;1.73;;;1.20;;
5845;SDS011;2949;50.778;7.094;2023-02-28T09:02:13;7.80;;;1.27;;
5845;SDS011;2949;50.778;7.094;2023-02-28T09:04:39;2.13;;;1.00;;
5845;SDS011;2949;50.778;7.094;2023-02-28T09:07:05;1.00;;;1.00;;
5845;SDS011;2949;50.778;7.094;2023-02-28T09:09:31;3.33;;;1.27;;
5845;SDS011;2949;50.778;7.094;2023-02-28T09:11:56;1.13;;;1.13;;
5845;SDS011;2949;50.778;7.094;2023-02-28T09:14:22;1.63;;;1.30;;
5845;SDS011;2949;50.778;7.094;2023-02-28T09:16:48;1.40;;;1.30;;
5845;SDS011;2949;50.778;7.094;2023-02-28T09:19:13;1.00;;;1.00;;
5845;SDS011;2949;50.778;7.094;2023-02-28T09:21:39;10.70;;;1.10;;
5845;SDS011;2949;50.778;7.094;2023-02-28T09:24:05;1.10;;;1.10;;
5845;SDS011;2949;50.778;7.094;2023-02-28T09:26:31;1.10;;;1.00;;
5845;SDS011;2949;50.778;7.094;2023-02-28T09:28:58;1.33;;;1.07;;
5845;SDS011;2949;50.778;7.094;2023-02-28T09:31:25;1.83;;;1.30;;
5845;SDS011;2949;50.778;7.094;2023-02-28T09:33:54;2.10;;;1.17;;
5845;SDS011;2949;50.778;7.094;2023-02-28T09:36:20;1.47;;;1.03;;
5845;SDS011;2949;50.778;7.094;2023-02-28T09:38:47;1.23;;;1.13;;
5845;SDS011;2949;50.778;7.094;2023-02-28T09:41:15;2.33;;;1.27;;
5845;SDS011;2949;50.778;7.094;2023-02-28T09:43:46;2.20;;;1.17;;
5845;SDS011;2949;50.778;7.094;2023-02-28T09:49:07;1.97;;;1.50;;
5845;SDS011;2949;50.778;7.094;2023-02-28T09:51:44;0.60;;;0.60;;
5845;SDS011;2949;50.778;7.094;2023-02-28T09:54:17;1.13;;;1.13;;
5845;SDS011;2949;50.778;7.094;2023-02-28T09:56:49;2.17;;;1.00;;
5845;SDS011;2949;50.778;7.094;2023-02-28T10:02:04;1.50;;;1.40;;
5845;SDS011;2949;50.778;7.094;2023-02-28T10:10:25;1.27;;;1.00;;
5845;SDS011;2949;50.778;7.094;2023-02-28T10:12:58;1.00;;;0.93;;
5845;SDS011;2949;50.778;7.094;2023-02-28T10:15:28;2.20;;;1.43;;
5845;SDS011;2949;50.778;7.094;2023-02-28T10:17:58;1.20;;;1.10;;
5845;SDS011;2949;50.778;7.094;2023-02-28T10:20:27;2.30;;;1.30;;
5845;SDS011;2949;50.778;7.094;2023-02-28T10:25:33;1.27;;;0.83;;
5845;SDS011;2949;50.778;7.094;2023-02-28T10:28:04;2.47;;;1.27;;
5845;SDS011;2949;50.778;7.094;2023-02-28T10:30:36;0.90;;;0.70;;
5845;SDS011;2949;50.778;7.094;2023-02-28T10:33:05;1.60;;;1.20;;
5845;SDS011;2949;50.778;7.094;2023-02-28T10:35:31;0.70;;;0.70;;
5845;SDS011;2949;50.778;7.094;2023-02-28T10:37:59;1.17;;;0.90;;
5845;SDS011;2949;50.778;7.094;2023-02-28T10:40:34;1.27;;;1.17;;
5845;SDS011;2949;50.778;7.094;2023-02-28T10:43:03;3.87;;;1.20;;
5845;SDS011;2949;50.778;7.094;2023-02-28T10:45:35;2.70;;;1.67;;
5845;SDS011;2949;50.778;7.094;2023-02-28T10:53:14;1.80;;;1.40;;
5845;SDS011;2949;50.778;7.094;2023-02-28T10:58:29;1.50;;;1.37;;
5845;SDS011;2949;50.778;7.094;2023-02-28T11:00:57;1.57;;;1.47;;
5845;SDS011;2949;50.778;7.094;2023-02-28T11:03:33;0.87;;;0.83;;
5845;SDS011;2949;50.778;7.094;2023-02-28T11:06:04;1.63;;;1.50;;
5845;SDS011;2949;50.778;7.094;2023-02-28T11:08:33;1.30;;;1.20;;
5845;SDS011;2949;50.778;7.094;2023-02-28T11:11:00;1.30;;;1.13;;
5845;SDS011;2949;50.778;7.094;2023-02-28T11:13:32;1.10;;;1.10;;
5845;SDS011;2949;50.778;7.094;2023-02-28T11:16:02;1.63;;;1.30;;
5845;SDS011;2949;50.778;7.094;2023-02-28T11:21:05;3.57;;;0.90;;
5845;SDS011;2949;50.778;7.094;2023-02-28T11:23:32;0.80;;;0.80;;
5845;SDS011;2949;50.778;7.094;2023-02-28T11:26:02;2.47;;;0.87;;
5845;SDS011;2949;50.778;7.094;2023-02-28T11:28:33;1.73;;;1.33;;
5845;SDS011;2949;50.778;7.094;2023-02-28T11:33:31;1.83;;;1.10;;
5845;SDS011;2949;50.778;7.094;2023-02-28T11:36:09;1.50;;;1.40;;
5845;SDS011;2949;50.778;7.094;2023-02-28T11:38:45;2.77;;;1.30;;
5845;SDS011;2949;50.778;7.094;2023-02-28T11:44:28;1.33;;;1.20;;
5845;SDS011;2949;50.778;7.094;2023-02-28T11:47:33;1.23;;;1.13;;
5845;SDS011;2949;50.778;7.094;2023-02-28T11:53:14;2.00;;;1.57;;
5845;SDS011;2949;50.778;7.094;2023-02-28T11:55:54;0.97;;;0.97;;
5845;SDS011;2949;50.778;7.094;2023-02-28T11:58:39;0.87;;;0.87;;
5845;SDS011;2949;50.778;7.094;2023-02-28T12:15:39;1.03;;;1.00;;
5845;SDS011;2949;50.778;7.094;2023-02-28T12:18:13;3.33;;;1.40;;
5845;SDS011;2949;50.778;7.094;2023-02-28T12:27:05;1.40;;;1.30;;
5845;SDS011;2949;50.778;7.094;2023-02-28T12:32:24;2.37;;;1.43;;
5845;SDS011;2949;50.778;7.094;2023-02-28T12:35:10;1.13;;;1.00;;
5845;SDS011;2949;50.778;7.094;2023-02-28T12:38:01;2.10;;;1.30;;
5845;SDS011;2949;50.778;7.094;2023-02-28T12:41:13;5.50;;;1.23;;
5845;SDS011;2949;50.778;7.094;2023-02-28T12:43:25;1.40;;;1.30;;
5845;SDS011;2949;50.778;7.094;2023-02-28T12:45:57;2.30;;;1.73;;
5845;SDS011;2949;50.778;7.094;2023-02-28T12:48:31;0.87;;;0.87;;
5845;SDS011;2949;50.778;7.094;2023-02-28T12:51:11;4.20;;;1.67;;
5845;SDS011;2949;50.778;7.094;2023-02-28T12:56:47;1.73;;;1.37;;
5845;SDS011;2949;50.778;7.094;2023-02-28T12:59:26;2.43;;;1.30;;
5845;SDS011;2949;50.778;7.094;2023-02-28T13:08:00;3.27;;;1.40;;
5845;SDS011;2949;50.778;7.094;2023-02-28T13:10:38;1.50;;;1.40;;
5845;SDS011;2949;50.778;7.094;2023-02-28T13:13:11;2.57;;;2.37;;
5845;SDS011;2949;50.778;7.094;2023-02-28T13:18:45;4.03;;;1.97;;
5845;SDS011;2949;50.778;7.094;2023-02-28T13:26:22;2.40;;;1.40;;
5845;SDS011;2949;50.778;7.094;2023-02-28T13:31:14;3.03;;;1.77;;
5845;SDS011;2949;50.778;7.094;2023-02-28T13:38:46;1.67;;;1.57;;
5845;SDS011;2949;50.778;7.094;2023-02-28T13:44:02;2.57;;;1.80;;
5845;SDS011;2949;50.778;7.094;2023-02-28T13:46:30;3.33;;;1.77;;
5845;SDS011;2949;50.778;7.094;2023-02-28T13:52:03;1.93;;;1.70;;
5845;SDS011;2949;50.778;7.094;2023-02-28T13:55:02;1.87;;;1.70;;
5845;SDS011;2949;50.778;7.094;2023-02-28T14:03:12;3.80;;;2.20;;
5845;SDS011;2949;50.778;7.094;2023-02-28T14:05:40;3.70;;;1.90;;
5845;SDS011;2949;50.778;7.094;2023-02-28T14:08:22;3.30;;;1.80;;
5845;SDS011;2949;50.778;7.094;2023-02-28T14:11:02;2.53;;;1.70;;
5845;SDS011;2949;50.778;7.094;2023-02-28T14:13:41;2.30;;;1.50;;
5845;SDS011;2949;50.778;7.094;2023-02-28T14:16:22;2.20;;;2.03;;
5845;SDS011;2949;50.778;7.094;2023-02-28T14:19:01;1.67;;;1.47;;
5845;SDS011;2949;50.778;7.094;2023-02-28T14:21:34;2.00;;;1.80;;
5845;SDS011;2949;50.778;7.094;2023-02-28T14:33:31;4.90;;;2.50;;
5845;SDS011;2949;50.778;7.094;2023-02-28T14:38:32;1.97;;;1.87;;
5845;SDS011;2949;50.778;7.094;2023-02-28T14:41:06;3.33;;;1.90;;
5845;SDS011;2949;50.778;7.094;2023-02-28T14:43:47;5.60;;;2.23;;
5845;SDS011;2949;50.778;7.094;2023-02-28T14:46:15;2.90;;;2.13;;
5845;SDS011;2949;50.778;7.094;2023-02-28T14:48:44;2.47;;;2.27;;
5845;SDS011;2949;50.778;7.094;2023-02-28T14:51:18;3.80;;;2.27;;
5845;SDS011;2949;50.778;7.094;2023-02-28T14:53:47;2.73;;;2.53;;
5845;SDS011;2949;50.778;7.094;2023-02-28T14:56:19;6.03;;;2.43;;
5845;SDS011;2949;50.778;7.094;2023-02-28T14:58:51;2.23;;;2.00;;
5845;SDS011;2949;50.778;7.094;2023-02-28T15:01:21;2.53;;;2.33;;
5845;SDS011;2949;50.778;7.094;2023-02-28T15:03:48;3.63;;;2.17;;
5845;SDS011;2949;50.778;7.094;2023-02-28T15:06:23;2.20;;;1.90;;
5845;SDS011;2949;50.778;7.094;2023-02-28T15:09:05;1.90;;;1.80;;
5845;SDS011;2949;50.778;7.094;2023-02-28T15:11:35;4.90;;;2.20;;
5845;SDS011;2949;50.778;7.094;2023-02-28T15:14:03;3.90;;;2.13;;
5845;SDS011;2949;50.778;7.094;2023-02-28T15:16:31;3.73;;;2.33;;
5845;SDS011;2949;50.778;7.094;2023-02-28T15:19:06;2.17;;;2.07;;
5845;SDS011;2949;50.778;7.094;2023-02-28T15:21:40;2.93;;;2.27;;
5845;SDS011;2949;50.778;7.094;2023-02-28T15:24:12;4.00;;;2.63;;
5845;SDS011;2949;50.778;7.094;2023-02-28T15:26:48;2.50;;;2.30;;
5845;SDS011;2949;50.778;7.094;2023-02-28T15:29:19;4.03;;;2.43;;
5845;SDS011;2949;50.778;7.094;2023-02-28T15:31:52;2.30;;;2.10;;
5845;SDS011;2949;50.778;7.094;2023-02-28T15:34:21;3.50;;;2.00;;
5845;SDS011;2949;50.778;7.094;2023-02-28T15:36:51;2.03;;;1.93;;
5845;SDS011;2949;50.778;7.094;2023-02-28T15:39:21;3.13;;;2.60;;
5845;SDS011;2949;50.778;7.094;2023-02-28T15:41:49;5.00;;;2.30;;
5845;SDS011;2949;50.778;7.094;2023-02-28T15:44:28;2.53;;;2.17;;
5845;SDS011;2949;50.778;7.094;2023-02-28T15:47:01;3.73;;;2.23;;
5845;SDS011;2949;50.778;7.094;2023-02-28T15:49:29;7.37;;;2.60;;
5845;SDS011;2949;50.778;7.094;2023-02-28T15:52:21;4.23;;;3.30;;
5845;SDS011;2949;50.778;7.094;2023-02-28T15:54:56;3.87;;;2.33;;
5845;SDS011;2949;50.778;7.094;2023-02-28T15:57:24;4.53;;;2.37;;
5845;SDS011;2949;50.778;7.094;2023-02-28T15:59:54;3.23;;;2.30;;
5845;SDS011;2949;50.778;7.094;2023-02-28T16:02:22;11.50;;;4.60;;
5845;SDS011;2949;50.778;7.094;2023-02-28T16:04:55;2.73;;;1.50;;
5845;SDS011;2949;50.778;7.094;2023-02-28T16:07:25;4.73;;;2.20;;
5845;SDS011;2949;50.778;7.094;2023-02-28T16:09:51;3.23;;;2.40;;
5845;SDS011;2949;50.778;7.094;2023-02-28T16:12:18;2.23;;;2.00;;
5845;SDS011;2949;50.778;7.094;2023-02-28T16:14:51;4.30;;;3.10;;
5845;SDS011;2949;50.778;7.094;2023-02-28T16:17:22;5.33;;;2.87;;
5845;SDS011;2949;50.778;7.094;2023-02-28T16:19:52;4.97;;;3.13;;
5845;SDS011;2949;50.778;7.094;2023-02-28T16:22:18;3.47;;;3.13;;
5845;SDS011;2949;50.778;7.094;2023-02-28T16:24:44;28.67;;;3.10;;
5845;SDS011;2949;50.778;7.094;2023-02-28T16:27:28;5.03;;;2.50;;
5845;SDS011;2949;50.778;7.094;2023-02-28T16:29:56;4.63;;;3.17;;
5845;SDS011;2949;50.778;7.094;2023-02-28T16:32:22;4.47;;;2.83;;
5845;SDS011;2949;50.778;7.094;2023-02-28T16:34:48;3.23;;;2.27;;
5845;SDS011;2949;50.778;7.094;2023-02-28T16:37:14;4.57;;;3.00;;
5845;SDS011;2949;50.778;7.094;2023-02-28T16:39:42;6.40;;;2.60;;
5845;SDS011;2949;50.778;7.094;2023-02-28T16:42:15;2.50;;;2.30;;
5845;SDS011;2949;50.778;7.094;2023-02-28T16:44:49;3.50;;;2.57;;
5845;SDS011;2949;50.778;7.094;2023-02-28T16:47:16;5.83;;;3.00;;
5845;SDS011;2949;50.778;7.094;2023-02-28T16:49:41;3.47;;;2.77;;
5845;SDS011;2949;50.778;7.094;2023-02-28T16:52:08;8.80;;;4.23;;
5845;SDS011;2949;50.778;7.094;2023-02-28T16:54:34;3.57;;;2.90;;
5845;SDS011;2949;50.778;7.094;2023-02-28T16:57:00;2.73;;;2.50;;
5845;SDS011;2949;50.778;7.094;2023-02-28T16:59:26;5.27;;;2.90;;
5845;SDS011;2949;50.778;7.094;2023-02-28T17:01:54;5.50;;;3.33;;
5845;SDS011;2949;50.778;7.094;2023-02-28T17:04:22;2.80;;;2.60;;
5845;SDS011;2949;50.778;7.094;2023-02-28T17:06:48;5.60;;;3.40;;
5845;SDS011;2949;50.778;7.094;2023-02-28T17:09:16;3.40;;;2.70;;
5845;SDS011;2949;50.778;7.094;2023-02-28T17:11:44;3.50;;;2.60;;
5845;SDS011;2949;50.778;7.094;2023-02-28T17:14:10;6.13;;;3.70;;
5845;SDS011;2949;50.778;7.094;2023-02-28T17:16:37;4.50;;;3.37;;
5845;SDS011;2949;50.778;7.094;2023-02-28T17:19:09;4.57;;;3.33;;
5845;SDS011;2949;50.778;7.094;2023-02-28T17:21:37;6.47;;;3.63;;
5845;SDS011;2949;50.778;7.094;2023-02-28T17:24:04;5.90;;;3.70;;
5845;SDS011;2949;50.778;7.094;2023-02-28T17:26:29;7.63;;;3.87;;
5845;SDS011;2949;50.778;7.094;2023-02-28T17:28:56;6.90;;;4.10;;
5845;SDS011;2949;50.778;7.094;2023-02-28T17:31:23;7.47;;;5.00;;
5845;SDS011;2949;50.778;7.094;2023-02-28T17:33:49;13.00;;;5.60;;
5845;SDS011;2949;50.778;7.094;2023-02-28T17:36:16;12.33;;;6.00;;
5845;SDS011;2949;50.778;7.094;2023-02-28T17:38:50;7.63;;;4.60;;
5845;SDS011;2949;50.778;7.094;2023-02-28T17:41:16;7.03;;;4.43;;
5845;SDS011;2949;50.778;7.094;2023-02-28T17:43:42;7.53;;;4.90;;
5845;SDS011;2949;50.778;7.094;2023-02-28T17:46:14;9.83;;;4.17;;
5845;SDS011;2949;50.778;7.094;2023-02-28T17:48:43;6.20;;;4.60;;